»·PEaware :: N47DT KSNA-KBUR

N47DT :: KSNA-KBUR

FLIGHT INFORMATION

Flight Status: Arrived
Operator: Privately registered:
United States
More flights under this callsign
Pilot: Wayne C. (13792)
Aircraft: CESSNA 172 SKYHAWK
(C172)
More flights by this aircraft type
Origin: KSNA John Wayne-Orange Co
United States
Destination: KBUR Bob Hope-Burbank
United States
More flights between these airports :: More routes between these airports
Route: SLI V23 POPPR SMO125 SMO SMO311 SILEX
File this flight plan on PilotEdge
Remarks: I-3
Altitude:
(Current/Filed)
4,000ft
Speed:
(Current/Filed)
105kts
Departed: 08-Jul-17 12:09 PM
Arrived: 08-Jul-17 12:58 PM
Distance/Time
Traveled:
40nm/0:49
Distance/Time
To Go:
Arrived

Flight Plot

Page will automatically refresh every two minutes.


Map Options




Map Legend


Flown Route
Filed Route
Departure Airport
Arrival Airport
Navaid (VOR, NDB)
Fix

Horizontal Profiles

Position Reports

Time Latitude Longitude Heading Altitude Ground
Speed
08-Jul-17 11:58 33.671584 -117.867682 207 60ft 0kts
08-Jul-17 11:59 33.671584 -117.867682 207 60ft 0kts
08-Jul-17 12:00 33.671584 -117.867682 207 60ft 0kts
08-Jul-17 12:01 33.671584 -117.867682 207 60ft 0kts
08-Jul-17 12:02 33.671584 -117.867682 207 60ft 0kts
08-Jul-17 12:03 33.671584 -117.867682 207 60ft 0kts
08-Jul-17 12:04 33.671584 -117.867682 207 60ft 0kts
08-Jul-17 12:05 33.671584 -117.867682 207 60ft 0kts
08-Jul-17 12:06 33.671584 -117.867682 207 60ft 0kts
08-Jul-17 12:07 33.671185 -117.868088 258 60ft 7kts
08-Jul-17 12:08 33.674050 -117.867091 32 60ft 14kts
08-Jul-17 12:09 33.679532 -117.863647 22 60ft 18kts
08-Jul-17 12:10 33.679956 -117.863657 308 60ft 0kts
08-Jul-17 12:11 33.679960 -117.863664 310 60ft 0kts
08-Jul-17 12:12 33.672043 -117.870045 214 284ft 82kts
08-Jul-17 12:13 33.656630 -117.894077 232 1025ft 101kts
08-Jul-17 12:14 33.639232 -117.923567 234 1484ft 109kts
08-Jul-17 12:15 33.623432 -117.953448 230 2107ft 95kts
08-Jul-17 12:16 33.606404 -117.979696 231 2363ft 96kts
08-Jul-17 12:17 33.603298 -118.007499 307 2737ft 101kts
08-Jul-17 12:18 33.621876 -118.031739 309 3191ft 95kts
08-Jul-17 12:19 33.639335 -118.054397 309 3684ft 90kts
08-Jul-17 12:20 33.656809 -118.077166 309 3960ft 103kts
08-Jul-17 12:21 33.673506 -118.099184 309 3982ft 111kts
08-Jul-17 12:22 33.694630 -118.126712 309 3981ft 112kts
08-Jul-17 12:23 33.715792 -118.153897 309 3981ft 111kts
08-Jul-17 12:24 33.740429 -118.185185 309 3981ft 109kts
08-Jul-17 12:25 33.761223 -118.211460 310 3980ft 108kts
08-Jul-17 12:26 33.781523 -118.237488 310 3979ft 106kts
08-Jul-17 12:27 33.801213 -118.263798 310 3971ft 107kts
08-Jul-17 12:28 33.820809 -118.290668 310 3971ft 106kts
08-Jul-17 12:29 33.836916 -118.313180 310 3971ft 107kts
08-Jul-17 12:30 33.857158 -118.339284 319 3971ft 107kts
08-Jul-17 12:31 33.880081 -118.362228 321 3971ft 107kts
08-Jul-17 12:32 33.904043 -118.383560 324 3971ft 107kts
08-Jul-17 12:33 33.928881 -118.403572 329 3971ft 107kts
08-Jul-17 12:34 33.954567 -118.421784 328 3972ft 107kts
08-Jul-17 12:35 33.980730 -118.438962 333 3972ft 108kts
08-Jul-17 12:36 34.008015 -118.454004 333 3973ft 108kts
08-Jul-17 12:37 34.032707 -118.473976 321 3973ft 107kts
08-Jul-17 12:38 34.057383 -118.494646 323 3973ft 109kts
08-Jul-17 12:39 34.082514 -118.515091 323 3973ft 110kts
08-Jul-17 12:40 34.107498 -118.535393 323 3973ft 112kts
08-Jul-17 12:41 34.133545 -118.556588 324 3974ft 114kts
08-Jul-17 12:42 34.159669 -118.578644 324 3976ft 115kts
08-Jul-17 12:43 34.185414 -118.601255 324 3978ft 115kts
08-Jul-17 12:44 34.208824 -118.591337 60 3980ft 106kts
08-Jul-17 12:45 34.224432 -118.560953 60 3980ft 106kts
08-Jul-17 12:46 34.240168 -118.530971 47 3979ft 106kts
08-Jul-17 12:47 34.224963 -118.515305 191 3982ft 108kts
08-Jul-17 12:48 34.195822 -118.524365 192 3979ft 107kts
08-Jul-17 12:49 34.167684 -118.535037 223 3974ft 108kts
08-Jul-17 12:50 34.167213 -118.571550 273 3976ft 112kts
08-Jul-17 12:51 34.170285 -118.609304 273 3977ft 113kts
08-Jul-17 12:52 34.189130 -118.627645 44 3977ft 108kts
08-Jul-17 12:53 34.200342 -118.599930 96 3636ft 92kts
08-Jul-17 12:54 34.200721 -118.568545 89 3140ft 89kts
08-Jul-17 12:55 34.199520 -118.536510 96 3041ft 104kts
08-Jul-17 12:56 34.199387 -118.500578 90 2998ft 105kts
08-Jul-17 12:57 34.199036 -118.466715 87 2435ft 98kts
08-Jul-17 12:58 34.198641 -118.434244 89 1832ft 94kts
08-Jul-17 12:59 34.198302 -118.402861 90 1365ft 92kts
08-Jul-17 13:00 34.197924 -118.374634 89 908ft 76kts
08-Jul-17 13:01 34.197847 -118.360696 76 734ft 0kts

Navigation Log

Ident Type
Flight plan parsing failed, navigation log unavailable